createdAt,value
2023-05-04T00:00:54.297Z,14.30
2023-05-04T00:03:33.906Z,14.28
2023-05-04T00:06:14.299Z,14.18
2023-05-04T00:09:15.512Z,14.16
2023-05-04T00:12:19.071Z,14.11
2023-05-04T00:14:46.053Z,14.09
2023-05-04T00:17:13.045Z,14.07
2023-05-04T00:19:54.553Z,14.05
2023-05-04T00:22:30.375Z,14.02
2023-05-04T00:24:57.187Z,13.99
2023-05-04T00:27:23.992Z,13.98
2023-05-04T00:29:50.765Z,13.95
2023-05-04T00:32:17.550Z,13.93
2023-05-04T00:34:46.171Z,13.89
2023-05-04T00:37:12.981Z,13.88
2023-05-04T00:39:39.795Z,13.84
2023-05-04T00:42:06.736Z,13.82
2023-05-04T00:44:34.690Z,13.79
2023-05-04T00:47:03.280Z,13.75
2023-05-04T00:49:30.152Z,13.73
2023-05-04T00:51:58.213Z,13.71
2023-05-04T00:54:25.831Z,13.68
2023-05-04T00:56:53.189Z,13.66
2023-05-04T00:59:22.131Z,13.62
2023-05-04T01:01:48.876Z,13.59
2023-05-04T01:04:16.465Z,13.56
2023-05-04T01:07:04.416Z,13.51
2023-05-04T01:10:02.013Z,13.42
2023-05-04T01:12:49.098Z,13.39
2023-05-04T01:15:16.220Z,13.35
2023-05-04T01:17:43.080Z,13.32
2023-05-04T01:20:10.261Z,13.30
2023-05-04T01:22:38.286Z,13.27
2023-05-04T01:25:06.571Z,13.23
2023-05-04T01:27:48.651Z,13.19
2023-05-04T01:30:23.526Z,13.16
2023-05-04T01:32:51.383Z,13.12
2023-05-04T01:35:18.303Z,13.10
2023-05-04T01:37:46.267Z,13.08
2023-05-04T01:40:13.050Z,13.02
2023-05-04T01:42:39.951Z,13.02
2023-05-04T01:45:08.064Z,13.01
2023-05-04T01:47:34.858Z,13.00
2023-05-04T01:50:02.012Z,12.98
2023-05-04T01:52:29.100Z,12.97
2023-05-04T01:54:55.893Z,12.96
2023-05-04T01:57:24.004Z,12.95
2023-05-04T01:59:50.881Z,12.94
2023-05-04T02:02:17.713Z,12.94
2023-05-04T02:04:44.541Z,12.91
2023-05-04T02:07:11.384Z,12.90
2023-05-04T02:09:38.233Z,12.90
2023-05-04T02:12:10.685Z,12.86
2023-05-04T02:15:06.478Z,12.85
2023-05-04T02:18:26.781Z,12.80
2023-05-04T02:21:04.413Z,12.79
2023-05-04T02:27:22.319Z,12.72
2023-05-04T02:30:30.207Z,12.71
2023-05-04T02:41:11.866Z,12.56
2023-05-04T02:43:55.034Z,12.53
2023-05-04T02:46:41.243Z,12.51
2023-05-04T02:52:44.933Z,12.43
2023-05-04T02:55:11.852Z,12.36
2023-05-04T02:57:51.262Z,12.37
2023-05-04T03:00:25.817Z,12.36
2023-05-04T03:03:01.290Z,12.33
2023-05-04T03:05:40.405Z,12.34
2023-05-04T03:08:24.433Z,12.32
2023-05-04T03:11:00.186Z,12.31
2023-05-04T03:13:32.628Z,12.30
2023-05-04T03:16:02.197Z,12.27
2023-05-04T03:21:13.942Z,12.23
2023-05-04T03:23:40.983Z,12.21
2023-05-04T03:26:09.857Z,12.20
2023-05-04T03:28:36.641Z,12.19
2023-05-04T03:31:03.393Z,12.18
2023-05-04T03:33:30.274Z,12.16
2023-05-04T03:35:57.055Z,12.13
2023-05-04T03:38:23.881Z,12.12
2023-05-04T03:40:50.639Z,12.12
2023-05-04T03:43:17.450Z,12.08
2023-05-04T03:45:44.246Z,12.07
2023-05-04T03:48:11.195Z,12.06
2023-05-04T03:50:38.250Z,12.04
2023-05-04T03:53:07.647Z,12.03
2023-05-04T03:55:34.408Z,12.01
2023-05-04T03:58:01.330Z,11.99
2023-05-04T04:00:28.101Z,11.98
2023-05-04T04:02:54.896Z,11.96
2023-05-04T04:05:21.778Z,11.96
2023-05-04T04:07:48.561Z,11.95
2023-05-04T04:10:15.440Z,11.95
2023-05-04T04:12:42.321Z,11.95
2023-05-04T04:15:09.582Z,11.94
2023-05-04T04:17:36.351Z,11.94
2023-05-04T04:20:03.662Z,11.95
2023-05-04T04:22:30.612Z,11.95
2023-05-04T04:24:57.488Z,11.94
2023-05-04T04:27:24.554Z,11.96
2023-05-04T04:29:51.473Z,11.97
2023-05-04T04:32:18.798Z,11.98
2023-05-04T04:34:45.559Z,12.01
2023-05-04T04:37:14.814Z,12.02
2023-05-04T04:39:42.144Z,12.04
2023-05-04T04:42:09.011Z,12.07
2023-05-04T04:44:35.906Z,12.09
2023-05-04T04:47:06.541Z,12.13
2023-05-04T04:49:33.334Z,12.16
2023-05-04T04:52:01.656Z,12.20
2023-05-04T04:54:29.285Z,12.25
2023-05-04T04:56:56.178Z,12.28
2023-05-04T04:59:24.762Z,12.33
2023-05-04T05:01:51.596Z,12.38
2023-05-04T05:04:19.630Z,12.43
2023-05-04T05:06:46.839Z,12.50
2023-05-04T05:09:14.261Z,12.56
2023-05-04T05:11:41.024Z,12.66
2023-05-04T05:14:07.808Z,12.78
2023-05-04T05:16:34.660Z,12.90
2023-05-04T05:19:01.448Z,13.00
2023-05-04T05:21:28.474Z,13.08
2023-05-04T05:23:55.342Z,13.14
2023-05-04T05:26:22.167Z,13.20
2023-05-04T05:28:51.441Z,13.29
2023-05-04T05:31:18.221Z,13.40
2023-05-04T05:33:45.187Z,13.56
2023-05-04T05:36:11.948Z,13.65
2023-05-04T05:38:39.113Z,13.70
2023-05-04T05:41:05.884Z,13.73
2023-05-04T05:43:33.443Z,13.74
2023-05-04T05:46:00.507Z,13.73
2023-05-04T05:48:27.381Z,13.75
2023-05-04T05:50:54.286Z,13.77
2023-05-04T05:53:21.087Z,13.79
2023-05-04T05:55:47.898Z,13.81
2023-05-04T05:58:14.671Z,13.84
2023-05-04T06:00:41.500Z,13.84
2023-05-04T06:03:08.488Z,13.87
2023-05-04T06:05:35.364Z,13.92
2023-05-04T06:08:02.196Z,13.99
2023-05-04T06:10:28.976Z,14.07
2023-05-04T06:12:55.933Z,14.14
2023-05-04T06:15:22.705Z,14.22
2023-05-04T06:17:49.773Z,14.28
2023-05-04T06:20:16.695Z,14.36
2023-05-04T06:22:43.550Z,14.43
2023-05-04T06:25:11.411Z,14.49
2023-05-04T06:27:38.168Z,14.57
2023-05-04T06:30:06.609Z,14.63
2023-05-04T06:32:33.779Z,14.68
2023-05-04T06:35:02.233Z,14.73
2023-05-04T06:37:29.033Z,14.79
2023-05-04T06:39:56.043Z,14.87
2023-05-04T06:42:22.810Z,14.92
2023-05-04T06:44:49.602Z,15.01
2023-05-04T06:47:16.453Z,15.10
2023-05-04T06:49:43.213Z,15.16
2023-05-04T06:52:10.423Z,15.23
2023-05-04T06:54:37.248Z,15.33
2023-05-04T06:57:04.430Z,15.43
2023-05-04T06:59:31.297Z,15.53
2023-05-04T07:01:58.135Z,15.62
2023-05-04T07:04:24.904Z,15.73
2023-05-04T07:06:52.128Z,15.84
2023-05-04T07:09:19.897Z,15.90
2023-05-04T07:11:48.515Z,15.94
2023-05-04T07:14:18.551Z,16.01
2023-05-04T07:16:45.523Z,16.06
2023-05-04T07:19:12.666Z,16.16
2023-05-04T07:21:39.436Z,16.25
2023-05-04T07:24:07.122Z,16.31
2023-05-04T07:26:34.089Z,16.35
2023-05-04T07:29:00.927Z,16.38
2023-05-04T07:31:29.504Z,16.41
2023-05-04T07:33:57.379Z,16.45
2023-05-04T07:36:26.454Z,16.50
2023-05-04T07:38:53.893Z,16.53
2023-05-04T07:41:20.839Z,16.58
2023-05-04T07:43:47.726Z,16.64
2023-05-04T07:46:14.498Z,16.69
2023-05-04T07:48:41.384Z,16.75
2023-05-04T07:51:16.169Z,16.84
2023-05-04T07:53:43.575Z,16.88
2023-05-04T07:56:12.581Z,16.94
2023-05-04T07:58:39.657Z,17.00
2023-05-04T08:01:06.511Z,17.09
2023-05-04T08:03:33.351Z,17.14
2023-05-04T08:06:00.242Z,17.21
2023-05-04T08:08:27.091Z,17.26
2023-05-04T08:10:54.970Z,17.34
2023-05-04T08:13:23.182Z,17.41
2023-05-04T08:15:49.933Z,17.51
2023-05-04T08:18:16.722Z,17.58
2023-05-04T08:20:43.609Z,17.69
2023-05-04T08:23:10.434Z,17.78
2023-05-04T08:25:37.198Z,17.87
2023-05-04T08:28:04.758Z,17.96
2023-05-04T08:30:31.548Z,18.04
2023-05-04T08:32:59.194Z,18.13
2023-05-04T08:35:27.810Z,18.20
2023-05-04T08:37:54.675Z,18.29
2023-05-04T08:40:23.964Z,18.39
2023-05-04T08:42:52.943Z,18.48
2023-05-04T08:45:19.785Z,18.55
2023-05-04T08:47:46.739Z,18.62
2023-05-04T08:50:13.624Z,18.67
2023-05-04T08:52:46.580Z,18.75
2023-05-04T08:55:16.186Z,18.79
2023-05-04T08:57:44.596Z,18.86
2023-05-04T09:00:15.371Z,18.94
2023-05-04T09:02:43.121Z,19.02
2023-05-04T09:05:11.957Z,19.11
2023-05-04T09:07:38.798Z,19.20
2023-05-04T09:10:06.499Z,19.31
2023-05-04T09:12:33.417Z,19.41
2023-05-04T09:15:02.291Z,19.52
2023-05-04T09:17:29.646Z,19.61
2023-05-04T09:20:01.546Z,19.72
2023-05-04T09:22:30.311Z,19.81
2023-05-04T09:25:13.591Z,19.88
2023-05-04T09:27:42.584Z,19.93
2023-05-04T09:30:10.817Z,20.00
2023-05-04T09:32:46.663Z,20.07
2023-05-04T09:35:29.153Z,20.10
2023-05-04T09:38:00.168Z,20.13
2023-05-04T09:40:42.867Z,20.18
2023-05-04T09:43:10.703Z,20.18
2023-05-04T09:45:43.786Z,20.21
2023-05-04T09:48:25.351Z,20.27
2023-05-04T09:50:58.271Z,20.30
2023-05-04T09:53:32.133Z,20.35
2023-05-04T09:56:27.651Z,20.43
2023-05-04T09:59:00.321Z,20.49
2023-05-04T10:01:29.646Z,20.55
2023-05-04T10:03:56.885Z,20.63
2023-05-04T10:06:24.638Z,20.70
2023-05-04T10:08:51.515Z,20.75
2023-05-04T10:11:20.159Z,20.81
2023-05-04T10:13:50.384Z,20.86
2023-05-04T10:16:38.274Z,20.95
2023-05-04T10:19:22.933Z,21.05
2023-05-04T10:22:55.089Z,21.14
2023-05-04T10:25:52.786Z,21.18
2023-05-04T10:28:39.509Z,21.22
2023-05-04T10:31:07.392Z,21.26
2023-05-04T10:33:43.988Z,21.33
2023-05-04T10:36:11.603Z,21.35
2023-05-04T10:38:40.442Z,21.38
2023-05-04T10:41:18.474Z,21.44
2023-05-04T10:43:50.931Z,21.48
2023-05-04T10:46:22.725Z,21.52
2023-05-04T10:48:50.782Z,21.53
2023-05-04T10:51:30.060Z,21.54
2023-05-04T10:54:01.375Z,21.52
2023-05-04T10:56:29.402Z,21.58
2023-05-04T10:58:56.477Z,21.67
2023-05-04T11:01:23.972Z,21.72
2023-05-04T11:03:55.206Z,21.79
2023-05-04T11:06:25.482Z,21.87
2023-05-04T11:09:03.360Z,21.91
2023-05-04T11:11:30.311Z,21.97
2023-05-04T11:13:58.689Z,22.03
2023-05-04T11:16:27.183Z,22.09
2023-05-04T11:18:54.791Z,22.15
2023-05-04T11:21:27.924Z,22.21
2023-05-04T11:23:59.572Z,22.23
2023-05-04T11:26:29.973Z,22.26
2023-05-04T11:28:57.025Z,22.29
2023-05-04T11:31:23.843Z,22.36
2023-05-04T11:33:54.576Z,22.40
2023-05-04T11:36:22.565Z,22.46
2023-05-04T11:38:50.054Z,22.53
2023-05-04T11:41:16.924Z,22.60
2023-05-04T11:43:45.228Z,22.67
2023-05-04T11:46:12.969Z,22.74
2023-05-04T11:48:40.802Z,22.81
2023-05-04T11:51:07.726Z,22.86
2023-05-04T11:53:39.557Z,22.92
2023-05-04T11:56:08.815Z,22.97
2023-05-04T11:58:36.508Z,23.01
2023-05-04T12:01:04.180Z,23.07
2023-05-04T12:03:43.934Z,23.15
2023-05-04T12:06:18.882Z,23.24
2023-05-04T12:08:45.850Z,23.33
2023-05-04T12:11:21.496Z,23.41
2023-05-04T12:13:49.821Z,23.46
2023-05-04T12:18:48.435Z,23.54
2023-05-04T12:21:19.155Z,23.59
2023-05-04T12:23:47.373Z,23.65
2023-05-04T12:26:16.273Z,23.74
2023-05-04T12:28:45.401Z,23.84
2023-05-04T12:31:12.364Z,23.97
2023-05-04T12:33:39.270Z,24.05
2023-05-04T12:36:06.704Z,24.14
2023-05-04T12:38:33.937Z,24.23
2023-05-04T12:41:04.195Z,24.31
2023-05-04T12:43:32.196Z,24.40
2023-05-04T12:45:59.259Z,24.44
2023-05-04T12:48:28.892Z,24.46
2023-05-04T12:50:56.038Z,24.47
2023-05-04T12:53:25.651Z,24.53
2023-05-04T12:55:52.523Z,24.61
2023-05-04T12:58:19.478Z,24.69
2023-05-04T13:00:46.333Z,24.78
2023-05-04T13:03:13.708Z,24.88
2023-05-04T13:05:40.650Z,24.95
2023-05-04T13:08:07.683Z,25.05
2023-05-04T13:10:34.477Z,25.15
2023-05-04T13:13:01.379Z,25.25
2023-05-04T13:15:28.213Z,25.28
2023-05-04T13:17:55.096Z,25.33
2023-05-04T13:20:22.648Z,25.40
2023-05-04T13:22:50.514Z,25.40
2023-05-04T13:25:17.405Z,25.42
2023-05-04T13:27:44.344Z,25.45
2023-05-04T13:30:11.955Z,25.46
2023-05-04T13:32:38.789Z,25.45
2023-05-04T13:35:06.668Z,25.43
2023-05-04T13:37:33.825Z,25.45
2023-05-04T13:40:01.632Z,25.47
2023-05-04T13:42:28.538Z,25.49
2023-05-04T13:44:55.343Z,25.50
2023-05-04T13:47:23.653Z,25.49
2023-05-04T13:49:50.949Z,25.48
2023-05-04T13:52:17.700Z,25.48
2023-05-04T13:54:44.632Z,25.48
2023-05-04T13:57:11.390Z,25.48
2023-05-04T13:59:38.188Z,25.48
2023-05-04T14:02:05.121Z,25.46
2023-05-04T14:04:31.990Z,25.44
2023-05-04T14:06:59.844Z,25.41
2023-05-04T14:09:26.838Z,25.42
2023-05-04T14:11:59.013Z,25.42
2023-05-04T14:14:26.026Z,25.41
2023-05-04T14:20:16.042Z,25.41
2023-05-04T14:22:45.897Z,25.37
2023-05-04T14:26:36.260Z,25.33
2023-05-04T14:29:32.762Z,25.27
2023-05-04T14:32:02.762Z,25.25
2023-05-04T14:37:23.585Z,25.23
2023-05-04T14:39:51.672Z,25.21
2023-05-04T14:42:18.522Z,25.18
2023-05-04T14:44:47.913Z,25.18
2023-05-04T14:47:14.757Z,25.17
2023-05-04T14:49:42.846Z,25.18
2023-05-04T14:52:09.821Z,25.17
2023-05-04T14:54:37.668Z,25.19
2023-05-04T14:57:05.004Z,25.18
2023-05-04T14:59:31.940Z,25.18
2023-05-04T15:01:58.683Z,25.14
2023-05-04T15:04:25.630Z,25.13
2023-05-04T15:06:52.562Z,25.13
2023-05-04T15:09:19.319Z,25.10
2023-05-04T15:11:46.172Z,25.08
2023-05-04T15:14:13.242Z,25.06
2023-05-04T15:16:40.296Z,25.06
2023-05-04T15:19:07.814Z,25.08
2023-05-04T15:21:34.583Z,25.07
2023-05-04T15:24:01.893Z,25.11
2023-05-04T15:26:31.311Z,25.12
2023-05-04T15:28:58.414Z,25.14
2023-05-04T15:31:25.420Z,25.13
2023-05-04T15:33:52.189Z,25.15
2023-05-04T15:36:23.413Z,25.16
2023-05-04T15:38:50.190Z,25.19
2023-05-04T15:41:16.960Z,25.20
2023-05-04T15:43:43.797Z,25.25
2023-05-04T15:46:10.597Z,25.28
2023-05-04T15:48:37.398Z,25.29
2023-05-04T15:51:10.227Z,25.31
2023-05-04T15:53:39.929Z,25.28
2023-05-04T15:56:09.943Z,25.25
2023-05-04T15:58:36.805Z,25.22
2023-05-04T16:01:09.183Z,25.18
2023-05-04T16:03:41.450Z,25.16
2023-05-04T16:09:30.498Z,25.10
2023-05-04T16:12:00.424Z,25.09
2023-05-04T16:14:33.600Z,25.08
2023-05-04T16:22:10.935Z,25.01
2023-05-04T16:24:43.832Z,24.98
2023-05-04T16:27:10.623Z,24.94
2023-05-04T16:29:37.441Z,24.90
2023-05-04T16:32:04.639Z,24.87
2023-05-04T16:34:31.463Z,24.81
2023-05-04T16:36:58.218Z,24.78
2023-05-04T16:39:31.535Z,24.77
2023-05-04T16:41:58.659Z,24.73
2023-05-04T16:44:26.137Z,24.71
2023-05-04T16:46:54.357Z,24.70
2023-05-04T16:49:24.115Z,24.67
2023-05-04T16:51:53.414Z,24.65
2023-05-04T16:54:20.965Z,24.62
2023-05-04T16:56:48.080Z,24.59
2023-05-04T16:59:14.949Z,24.58
2023-05-04T17:01:42.645Z,24.57
2023-05-04T17:04:10.707Z,24.56
2023-05-04T17:06:37.995Z,24.51
2023-05-04T17:09:05.584Z,24.49
2023-05-04T17:11:32.602Z,24.46
2023-05-04T17:13:59.963Z,24.44
2023-05-04T17:16:26.976Z,24.39
2023-05-04T17:18:53.794Z,24.34
2023-05-04T17:21:20.621Z,24.31
2023-05-04T17:23:47.396Z,24.27
2023-05-04T17:26:14.132Z,24.24
2023-05-04T17:28:40.890Z,24.19
2023-05-04T17:31:12.286Z,24.18
2023-05-04T17:33:39.654Z,24.13
2023-05-04T17:36:07.645Z,24.08
2023-05-04T17:38:34.578Z,24.04
2023-05-04T17:41:01.396Z,23.99
2023-05-04T17:43:28.292Z,23.97
2023-05-04T17:45:55.944Z,23.92
2023-05-04T17:48:24.004Z,23.86
2023-05-04T17:50:51.465Z,23.82
2023-05-04T17:53:18.575Z,23.79
2023-05-04T17:55:45.486Z,23.74
2023-05-04T17:58:12.239Z,23.71
2023-05-04T18:00:39.057Z,23.67
2023-05-04T18:03:05.863Z,23.63
2023-05-04T18:05:32.845Z,23.60
2023-05-04T18:07:59.650Z,23.55
2023-05-04T18:10:26.908Z,23.49
2023-05-04T18:12:56.172Z,23.45
2023-05-04T18:15:24.203Z,23.40
2023-05-04T18:17:51.076Z,23.35
2023-05-04T18:20:18.351Z,23.30
2023-05-04T18:22:46.521Z,23.25
2023-05-04T18:25:15.238Z,23.20
2023-05-04T18:27:42.234Z,23.14
2023-05-04T18:30:10.757Z,23.08
2023-05-04T18:32:37.751Z,23.02
2023-05-04T18:35:04.908Z,22.98
2023-05-04T18:37:31.702Z,22.92
2023-05-04T18:39:59.024Z,22.88
2023-05-04T18:42:26.024Z,22.82
2023-05-04T18:44:53.631Z,22.77
2023-05-04T18:47:20.865Z,22.72
2023-05-04T18:49:52.425Z,22.67
2023-05-04T18:52:19.279Z,22.64
2023-05-04T18:54:46.433Z,22.59
2023-05-04T18:57:14.120Z,22.54
2023-05-04T18:59:40.969Z,22.50
2023-05-04T19:02:08.408Z,22.45
2023-05-04T19:04:35.455Z,22.40
2023-05-04T19:07:02.198Z,22.36
2023-05-04T19:09:29.048Z,22.32
2023-05-04T19:11:55.898Z,22.28
2023-05-04T19:14:22.641Z,22.24
2023-05-04T19:16:50.366Z,22.21
2023-05-04T19:19:17.652Z,22.17
2023-05-04T19:21:44.412Z,22.12
2023-05-04T19:24:11.195Z,22.08
2023-05-04T19:26:38.995Z,22.03
2023-05-04T19:29:05.855Z,21.99
2023-05-04T19:31:32.771Z,21.96
2023-05-04T19:33:59.570Z,21.92
2023-05-04T19:36:27.211Z,21.89
2023-05-04T19:38:54.220Z,21.85
2023-05-04T19:41:21.225Z,21.82
2023-05-04T19:43:47.982Z,21.77
2023-05-04T19:46:14.828Z,21.73
2023-05-04T19:48:41.803Z,21.70
2023-05-04T19:51:08.570Z,21.66
2023-05-04T19:53:35.404Z,21.62
2023-05-04T19:56:02.171Z,21.59
2023-05-04T19:58:30.769Z,21.55
2023-05-04T20:00:57.961Z,21.51
2023-05-04T20:03:24.868Z,21.46
2023-05-04T20:05:52.249Z,21.41
2023-05-04T20:08:19.456Z,21.39
2023-05-04T20:10:46.277Z,21.35
2023-05-04T20:13:13.647Z,21.30
2023-05-04T20:15:40.581Z,21.25
2023-05-04T20:18:07.429Z,21.22
2023-05-04T20:20:34.354Z,21.18
2023-05-04T20:23:01.150Z,21.16
2023-05-04T20:25:27.981Z,21.12
2023-05-04T20:27:54.843Z,21.09
2023-05-04T20:30:21.690Z,21.06
2023-05-04T20:32:49.217Z,21.00
2023-05-04T20:35:17.063Z,20.95
2023-05-04T20:37:44.201Z,20.90
2023-05-04T20:40:12.057Z,20.88
2023-05-04T20:42:39.149Z,20.83
2023-05-04T20:45:07.465Z,20.80
2023-05-04T20:47:34.576Z,20.77
2023-05-04T20:50:01.410Z,20.72
2023-05-04T20:52:28.585Z,20.68
2023-05-04T20:54:55.471Z,20.65
2023-05-04T20:57:22.294Z,20.61
2023-05-04T20:59:49.178Z,20.58
2023-05-04T21:02:16.026Z,20.57
2023-05-04T21:04:43.321Z,20.53
2023-05-04T21:07:10.124Z,20.50
2023-05-04T21:09:36.936Z,20.47
2023-05-04T21:12:03.881Z,20.45
2023-05-04T21:14:30.728Z,20.42
2023-05-04T21:16:57.512Z,20.39
2023-05-04T21:19:24.298Z,20.35
2023-05-04T21:21:51.140Z,20.33
2023-05-04T21:24:17.932Z,20.30
2023-05-04T21:26:45.877Z,20.28
2023-05-04T21:29:13.023Z,20.24
2023-05-04T21:31:40.291Z,20.21
2023-05-04T21:34:08.193Z,20.18
2023-05-04T21:36:35.447Z,20.16
2023-05-04T21:39:02.225Z,20.13
2023-05-04T21:41:29.804Z,20.10
2023-05-04T21:43:56.660Z,20.07
2023-05-04T21:46:23.493Z,20.06
2023-05-04T21:48:51.664Z,20.03
2023-05-04T21:51:20.630Z,20.00
2023-05-04T21:53:47.739Z,19.98
2023-05-04T21:56:14.660Z,19.96
2023-05-04T21:58:42.030Z,19.93
2023-05-04T22:01:09.468Z,19.90
2023-05-04T22:03:36.413Z,19.86
2023-05-04T22:06:03.390Z,19.83
2023-05-04T22:08:30.523Z,19.79
2023-05-04T22:10:58.583Z,19.75
2023-05-04T22:13:26.197Z,19.71
2023-05-04T22:15:53.724Z,19.66
2023-05-04T22:18:20.947Z,19.63
2023-05-04T22:20:47.867Z,19.60
2023-05-04T22:23:14.732Z,19.56
2023-05-04T22:25:41.944Z,19.52
2023-05-04T22:28:08.730Z,19.51
2023-05-04T22:30:35.807Z,19.47
2023-05-04T22:33:02.817Z,19.44
2023-05-04T22:35:31.526Z,19.41
2023-05-04T22:37:58.520Z,19.37
2023-05-04T22:40:25.409Z,19.34
2023-05-04T22:42:52.348Z,19.32
2023-05-04T22:45:19.241Z,19.29
2023-05-04T22:47:48.668Z,19.25
2023-05-04T22:50:15.562Z,19.22
2023-05-04T22:52:42.529Z,19.20
2023-05-04T22:55:09.504Z,19.16
2023-05-04T22:57:36.713Z,19.13
2023-05-04T23:00:07.491Z,19.10
2023-05-04T23:02:42.353Z,19.07
2023-05-04T23:05:09.282Z,18.99
2023-05-04T23:07:36.150Z,18.99
2023-05-04T23:10:06.775Z,18.96
2023-05-04T23:12:33.746Z,18.93
2023-05-04T23:15:00.498Z,18.93
2023-05-04T23:17:27.324Z,18.93
2023-05-04T23:19:54.079Z,18.90
2023-05-04T23:22:20.848Z,18.87
2023-05-04T23:24:47.639Z,18.85
2023-05-04T23:27:14.509Z,18.81
2023-05-04T23:29:41.340Z,18.77
2023-05-04T23:32:08.249Z,18.74
2023-05-04T23:34:35.110Z,18.70
2023-05-04T23:37:01.920Z,18.66
2023-05-04T23:39:28.739Z,18.62
2023-05-04T23:41:55.500Z,18.59
2023-05-04T23:44:22.365Z,18.54
2023-05-04T23:46:49.147Z,18.51
2023-05-04T23:49:16.392Z,18.48
2023-05-04T23:51:43.276Z,18.45
2023-05-04T23:54:10.434Z,18.41
2023-05-04T23:56:39.497Z,18.38
2023-05-04T23:59:06.324Z,18.34
